Time;durP1;ratioP1;P1;durP2;ratioP2;P2;SDS_P1;SDS_P2;PMS_P1;PMS_P2;Temp;Humidity;BMP_temperature;BMP_pressure;BME280_temperature;BME280_humidity;BME280_pressure;Samples;Min_cycle;Max_cycle;Signal;HPM_P1;HPM_P2
2021/10/09 00:01:22;;;;;;;24.70;22.20;;;10.70;99.90;;;;;;5069057;28;20406;-77
2021/10/09 00:03:49;;;;;;;26.63;23.93;;;10.70;99.90;;;;;;5059705;28;20592;-77
2021/10/09 00:06:15;;;;;;;25.73;23.00;;;10.70;99.90;;;;;;5049663;28;20403;-78
2021/10/09 00:08:41;;;;;;;24.83;22.33;;;10.70;99.90;;;;;;5049679;28;20543;-77
2021/10/09 00:11:14;;;;;;;26.77;23.87;;;10.70;99.90;;;;;;5049615;28;20493;-77
2021/10/09 00:13:40;;;;;;;26.77;23.80;;;10.80;99.90;;;;;;5049221;28;20207;-77
2021/10/09 00:16:05;;;;;;;28.20;24.70;;;10.70;99.90;;;;;;5049628;28;20388;-77
2021/10/09 00:18:31;;;;;;;27.10;24.20;;;10.70;99.90;;;;;;5048946;28;20913;-77
2021/10/09 00:20:56;;;;;;;28.50;24.67;;;10.70;99.90;;;;;;5048927;28;20180;-77
2021/10/09 00:23:22;;;;;;;28.13;25.13;;;10.70;99.90;;;;;;5048492;28;20636;-77
2021/10/09 00:25:47;;;;;;;26.07;23.33;;;10.70;99.90;;;;;;5039173;28;20656;-77
2021/10/09 00:28:13;;;;;;;27.73;23.70;;;10.60;99.90;;;;;;5035674;28;20613;-77
2021/10/09 00:30:38;;;;;;;28.67;22.63;;;10.60;99.90;;;;;;5035290;28;20157;-77
2021/10/09 00:33:04;;;;;;;28.33;25.30;;;10.60;99.90;;;;;;5040219;28;20303;-77
2021/10/09 00:35:29;;;;;;;24.97;22.00;;;10.60;99.90;;;;;;5055600;28;20266;-77
2021/10/09 00:37:55;;;;;;;27.33;24.43;;;10.60;99.90;;;;;;5055662;28;20172;-79
2021/10/09 00:40:21;;;;;;;28.00;24.47;;;10.50;99.90;;;;;;5055518;28;20156;-79
2021/10/09 00:42:46;;;;;;;26.87;22.77;;;10.50;99.90;;;;;;5041272;28;20665;-79
2021/10/09 00:45:12;;;;;;;29.07;26.03;;;10.50;99.90;;;;;;5032503;28;20161;-79
2021/10/09 00:47:37;;;;;;;30.27;24.83;;;10.40;99.90;;;;;;5034843;28;20200;-77
2021/10/09 00:50:04;;;;;;;28.00;24.30;;;10.40;99.90;;;;;;5035535;28;20160;-77
2021/10/09 00:52:33;;;;;;;27.63;24.07;;;10.40;99.90;;;;;;5035068;28;20149;-77
2021/10/09 00:55:02;;;;;;;27.87;24.37;;;10.30;99.90;;;;;;5035142;28;20404;-77
2021/10/09 00:57:29;;;;;;;28.17;24.97;;;10.30;99.90;;;;;;5035118;28;20395;-78
2021/10/09 00:59:59;;;;;;;27.97;23.40;;;10.20;99.90;;;;;;5035596;28;20407;-78
2021/10/09 01:02:25;;;;;;;26.00;23.20;;;10.20;99.90;;;;;;5035066;28;20435;-77
2021/10/09 01:04:51;;;;;;;25.77;22.90;;;10.10;99.90;;;;;;5054189;28;20437;-77
2021/10/09 01:07:17;;;;;;;26.73;23.80;;;10.10;99.90;;;;;;5054511;28;20879;-78
2021/10/09 01:09:45;;;;;;;26.07;23.23;;;10.10;99.90;;;;;;5053571;28;20418;-77
2021/10/09 01:12:13;;;;;;;31.33;26.87;;;10.00;99.90;;;;;;5052871;28;20156;-78
2021/10/09 01:14:38;;;;;;;34.23;29.17;;;10.00;99.90;;;;;;5054621;28;20461;-78
2021/10/09 01:17:04;;;;;;;56.93;39.97;;;9.90;99.90;;;;;;5038757;28;20412;-77
2021/10/09 01:19:29;;;;;;;45.83;34.43;;;9.90;99.90;;;;;;5034527;28;20161;-77
2021/10/09 01:21:55;;;;;;;46.37;32.97;;;9.90;99.90;;;;;;5034424;28;20161;-78
2021/10/09 01:24:21;;;;;;;41.00;30.97;;;9.80;99.90;;;;;;5034678;28;20500;-78
2021/10/09 01:26:46;;;;;;;34.60;30.17;;;9.80;99.90;;;;;;5034862;28;20172;-77
2021/10/09 01:29:13;;;;;;;44.20;34.03;;;9.80;99.90;;;;;;5034251;28;20172;-78
2021/10/09 01:31:38;;;;;;;48.37;35.80;;;9.80;99.90;;;;;;5034108;28;20207;-78
2021/10/09 01:34:04;;;;;;;56.00;38.93;;;9.80;99.90;;;;;;5033835;28;20455;-78
2021/10/09 01:36:32;;;;;;;49.67;38.57;;;9.80;99.90;;;;;;5033130;28;20176;-77
2021/10/09 01:38:58;;;;;;;54.10;37.87;;;9.70;99.90;;;;;;5034264;28;20160;-78
2021/10/09 01:41:24;;;;;;;66.20;42.83;;;9.70;99.90;;;;;;5034431;28;20868;-78
2021/10/09 01:43:49;;;;;;;56.23;39.70;;;9.70;99.90;;;;;;5034226;28;20412;-77
2021/10/09 01:46:15;;;;;;;68.30;44.93;;;9.70;99.90;;;;;;5033749;28;20169;-77
2021/10/09 01:48:41;;;;;;;55.30;40.07;;;9.70;99.90;;;;;;5034136;28;20310;-78
2021/10/09 01:51:09;;;;;;;44.37;35.03;;;9.60;99.90;;;;;;5034420;28;20673;-78
2021/10/09 01:53:35;;;;;;;47.80;35.33;;;9.60;99.90;;;;;;5033869;28;20539;-76
2021/10/09 01:56:01;;;;;;;60.43;39.43;;;9.60;99.90;;;;;;5033924;28;20394;-75
2021/10/09 01:58:26;;;;;;;50.27;37.60;;;9.50;99.90;;;;;;5033760;28;20396;-76
2021/10/09 02:00:52;;;;;;;49.10;35.93;;;9.50;99.90;;;;;;5033919;28;20219;-76
2021/10/09 02:03:20;;;;;;;53.77;39.47;;;9.50;99.90;;;;;;5042591;28;20776;-76
2021/10/09 02:05:46;;;;;;;55.63;40.33;;;9.50;99.90;;;;;;5053450;28;20243;-75
2021/10/09 02:08:12;;;;;;;53.00;40.50;;;9.40;99.90;;;;;;5036470;28;20420;-76
2021/10/09 02:10:48;;;;;;;47.33;37.70;;;9.40;99.90;;;;;;5034065;28;20404;-73
2021/10/09 02:13:17;;;;;;;43.80;33.07;;;9.40;99.90;;;;;;5033268;28;20834;-73
2021/10/09 02:24:19;;;;;;;44.97;33.13;;;9.30;99.90;;;;;;5032954;28;20481;-73
2021/10/09 02:26:44;;;;;;;37.60;29.93;;;9.30;99.90;;;;;;5033803;28;20950;-73
2021/10/09 02:29:10;;;;;;;40.53;30.67;;;9.40;99.90;;;;;;5033314;28;20415;-73
2021/10/09 02:31:35;;;;;;;41.00;30.70;;;9.30;99.90;;;;;;5032879;28;20251;-73
2021/10/09 02:34:01;;;;;;;34.13;27.80;;;9.30;99.90;;;;;;5032823;28;20188;-73
2021/10/09 02:36:26;;;;;;;43.77;32.07;;;9.30;99.90;;;;;;5033042;28;20614;-73
2021/10/09 02:38:52;;;;;;;46.57;31.97;;;9.30;99.90;;;;;;5033073;28;20172;-73
2021/10/09 02:41:17;;;;;;;51.60;34.80;;;9.30;99.90;;;;;;5033500;28;20196;-73
2021/10/09 02:43:43;;;;;;;49.03;37.40;;;9.30;99.90;;;;;;5033057;28;20231;-73
2021/10/09 02:46:09;;;;;;;54.00;37.60;;;9.30;99.90;;;;;;5032759;28;20172;-73
2021/10/09 02:48:34;;;;;;;54.23;38.70;;;9.30;99.90;;;;;;5032586;28;20240;-73
2021/10/09 02:51:00;;;;;;;43.13;34.13;;;9.20;99.90;;;;;;5032714;28;20195;-73
2021/10/09 02:53:26;;;;;;;44.80;35.70;;;9.20;99.90;;;;;;5032881;28;20254;-73
2021/10/09 02:55:51;;;;;;;43.70;33.87;;;9.20;99.90;;;;;;5032500;28;20157;-73
2021/10/09 02:58:17;;;;;;;50.53;34.57;;;9.20;99.90;;;;;;5032999;28;20529;-73
2021/10/09 03:00:42;;;;;;;43.27;32.20;;;9.20;99.90;;;;;;5032415;28;20516;-73
2021/10/09 03:03:08;;;;;;;39.33;31.53;;;9.10;99.90;;;;;;5041928;28;20266;-74
2021/10/09 03:05:33;;;;;;;45.70;34.33;;;9.10;99.90;;;;;;5052633;28;20640;-73
2021/10/09 03:07:59;;;;;;;45.10;35.07;;;9.10;99.90;;;;;;5052458;28;20171;-73
2021/10/09 03:10:25;;;;;;;59.70;39.57;;;9.10;99.90;;;;;;5052730;28;20269;-73
2021/10/09 03:12:51;;;;;;;52.53;38.23;;;9.10;99.90;;;;;;5052122;28;20394;-73
2021/10/09 03:15:16;;;;;;;48.13;37.90;;;9.00;99.90;;;;;;5043281;28;20287;-73
2021/10/09 03:17:42;;;;;;;44.40;35.43;;;9.00;99.90;;;;;;5032706;28;20224;-73
2021/10/09 03:20:10;;;;;;;39.40;33.17;;;9.00;99.90;;;;;;5032446;28;20239;-73
2021/10/09 03:22:36;;;;;;;44.33;33.20;;;9.00;99.90;;;;;;5032464;28;20747;-73
2021/10/09 03:25:02;;;;;;;38.77;31.47;;;9.00;99.90;;;;;;5032517;28;20473;-73
2021/10/09 03:27:27;;;;;;;42.20;35.13;;;8.90;99.90;;;;;;5032494;28;20498;-73
2021/10/09 03:29:53;;;;;;;48.17;35.97;;;8.90;99.90;;;;;;5032654;28;20392;-73
2021/10/09 03:32:18;;;;;;;38.73;31.50;;;8.90;99.90;;;;;;5037947;28;20202;-73
2021/10/09 03:34:44;;;;;;;35.63;29.70;;;8.90;99.90;;;;;;5052065;28;20242;-73
2021/10/09 03:37:10;;;;;;;29.90;25.67;;;8.80;99.90;;;;;;5052298;28;20147;-73
2021/10/09 03:39:40;;;;;;;29.57;25.33;;;8.80;99.90;;;;;;5052190;28;20397;-73
2021/10/09 03:42:10;;;;;;;30.67;26.17;;;8.80;99.90;;;;;;5052070;28;20394;-73
2021/10/09 03:44:44;;;;;;;30.93;26.10;;;8.80;99.90;;;;;;5052100;28;20379;-73
2021/10/09 03:49:58;;;;;;;39.30;32.47;;;8.70;99.90;;;;;;5036143;28;20430;-73
2021/10/09 03:52:41;;;;;;;43.47;33.43;;;8.70;99.90;;;;;;5032108;28;20410;-73
2021/10/09 03:55:08;;;;;;;37.57;31.13;;;8.70;99.90;;;;;;5032099;28;20872;-74
2021/10/09 03:57:35;;;;;;;36.47;31.07;;;8.70;99.90;;;;;;5032371;28;20430;-73
2021/10/09 04:00:03;;;;;;;40.00;30.90;;;8.70;99.90;;;;;;5033209;28;20477;-73
2021/10/09 04:02:28;;;;;;;39.13;31.10;;;8.70;99.90;;;;;;5043843;28;20799;-73
2021/10/09 04:04:54;;;;;;;31.93;28.00;;;8.60;99.90;;;;;;5055651;28;20405;-73
2021/10/09 04:07:19;;;;;;;38.73;29.60;;;8.60;99.90;;;;;;5037501;28;20206;-73
2021/10/09 04:09:45;;;;;;;31.93;28.23;;;8.60;99.90;;;;;;5035599;28;20176;-73
2021/10/09 04:12:11;;;;;;;31.17;27.00;;;8.60;99.90;;;;;;5035636;28;20159;-73
2021/10/09 04:14:36;;;;;;;32.80;25.20;;;8.60;99.90;;;;;;5035520;28;20754;-73
2021/10/09 04:17:02;;;;;;;33.93;27.40;;;8.60;99.90;;;;;;5035579;28;20166;-73
2021/10/09 04:19:27;;;;;;;29.40;25.43;;;8.60;99.90;;;;;;5035502;28;20610;-73
2021/10/09 04:21:53;;;;;;;28.40;25.10;;;8.60;99.90;;;;;;5035495;28;20642;-73
2021/10/09 04:24:19;;;;;;;30.23;24.97;;;8.60;99.90;;;;;;5036165;28;20201;-73
2021/10/09 04:26:45;;;;;;;29.20;26.00;;;8.60;99.90;;;;;;5035468;28;20212;-73
2021/10/09 04:29:11;;;;;;;30.67;26.83;;;8.60;99.90;;;;;;5035389;28;20478;-73
2021/10/09 04:31:37;;;;;;;30.83;26.60;;;8.50;99.90;;;;;;5036733;28;20537;-73
2021/10/09 04:34:02;;;;;;;30.50;26.80;;;8.60;99.90;;;;;;5055199;28;20686;-73
2021/10/09 04:36:28;;;;;;;35.67;28.27;;;8.60;99.90;;;;;;5055147;28;20160;-73
2021/10/09 04:38:53;;;;;;;29.77;25.97;;;8.50;99.90;;;;;;5055120;28;20163;-73
2021/10/09 04:41:19;;;;;;;28.47;25.47;;;8.50;99.90;;;;;;5037094;28;20315;-73
2021/10/09 04:43:44;;;;;;;30.77;25.67;;;8.50;99.90;;;;;;5035002;28;20171;-73
2021/10/09 04:46:10;;;;;;;27.53;24.23;;;8.50;99.90;;;;;;5035050;28;20161;-73
2021/10/09 04:48:36;;;;;;;32.70;25.30;;;8.50;99.90;;;;;;5035311;28;20177;-73
2021/10/09 04:51:01;;;;;;;26.80;23.40;;;8.50;99.90;;;;;;5034918;28;20178;-73
2021/10/09 04:53:27;;;;;;;28.33;22.90;;;8.40;99.90;;;;;;5034818;28;20453;-73
2021/10/09 04:55:53;;;;;;;33.47;27.57;;;8.40;99.90;;;;;;5034831;28;20214;-73
2021/10/09 04:58:18;;;;;;;29.70;26.07;;;8.40;99.90;;;;;;5052375;28;20545;-73
2021/10/09 05:00:44;;;;;;;28.27;25.07;;;8.40;99.90;;;;;;5054976;28;20242;-73
2021/10/09 05:03:09;;;;;;;29.60;25.43;;;8.40;99.90;;;;;;5039970;28;20274;-73
2021/10/09 05:05:35;;;;;;;29.23;26.07;;;8.40;99.90;;;;;;5034784;28;20520;-75
2021/10/09 05:08:00;;;;;;;29.80;25.53;;;8.30;99.90;;;;;;5034722;28;20168;-73
2021/10/09 05:10:28;;;;;;;27.70;24.03;;;8.30;99.90;;;;;;5034788;28;20172;-73
2021/10/09 05:12:54;;;;;;;28.30;24.00;;;8.30;99.90;;;;;;5034525;28;20581;-73
2021/10/09 05:15:19;;;;;;;30.20;25.63;;;8.30;99.90;;;;;;5035170;28;20469;-75
2021/10/09 05:17:45;;;;;;;36.30;26.70;;;8.30;99.90;;;;;;5034571;28;20195;-75
2021/10/09 05:20:11;;;;;;;27.97;24.93;;;8.30;99.90;;;;;;5034453;28;20238;-73
2021/10/09 05:22:36;;;;;;;31.33;24.33;;;8.30;99.90;;;;;;5034453;28;20718;-73
2021/10/09 05:25:04;;;;;;;28.83;24.20;;;8.20;99.90;;;;;;5034215;28;20585;-73
2021/10/09 05:27:31;;;;;;;31.63;24.60;;;8.20;99.90;;;;;;5034212;28;20463;-73
2021/10/09 05:30:02;;;;;;;28.67;25.40;;;8.20;99.90;;;;;;5034401;28;20406;-73
2021/10/09 05:32:31;;;;;;;28.20;22.67;;;8.20;99.90;;;;;;5045200;28;20988;-75
2021/10/09 05:34:57;;;;;;;33.10;24.60;;;8.20;99.90;;;;;;5054129;28;20445;-73
2021/10/09 05:37:22;;;;;;;29.27;26.10;;;8.20;99.90;;;;;;5054169;28;20494;-73
2021/10/09 05:39:48;;;;;;;27.00;22.80;;;8.20;99.90;;;;;;5051837;28;20155;-73
2021/10/09 05:42:13;;;;;;;27.40;24.27;;;8.10;99.90;;;;;;5034014;28;20512;-73
2021/10/09 05:44:39;;;;;;;27.87;23.33;;;8.10;99.90;;;;;;5034290;28;20191;-73
2021/10/09 05:47:04;;;;;;;25.97;23.17;;;8.10;99.90;;;;;;5033890;28;20170;-73
2021/10/09 05:49:30;;;;;;;26.30;23.40;;;8.10;99.90;;;;;;5053314;28;20647;-73
2021/10/09 05:54:44;;;;;;;27.70;23.07;;;8.10;99.90;;;;;;5069355;28;20511;-70
2021/10/09 05:57:29;;;;;;;28.20;23.20;;;8.10;99.90;;;;;;5069544;28;20401;-70
2021/10/09 07:00:32;;;;;;;30.90;25.77;;;8.50;99.90;;;;;;5048594;28;20774;-70
2021/10/09 07:02:57;;;;;;;31.03;25.40;;;8.50;99.90;;;;;;5048919;28;20433;-72
2021/10/09 07:05:23;;;;;;;27.47;23.53;;;8.60;99.90;;;;;;5048821;28;20270;-71
2021/10/09 07:07:51;;;;;;;31.33;25.60;;;8.60;99.90;;;;;;5048902;28;20246;-71
2021/10/09 07:10:17;;;;;;;35.20;27.60;;;8.70;99.90;;;;;;5057098;28;20237;-71
2021/10/09 07:12:43;;;;;;;29.00;24.37;;;8.70;99.90;;;;;;5064191;28;20442;-70
2021/10/09 07:15:10;;;;;;;33.50;25.40;;;8.80;99.90;;;;;;5049022;28;20163;-71
2021/10/09 07:17:36;;;;;;;31.00;26.17;;;8.80;99.90;;;;;;5060200;28;20189;-71
2021/10/09 07:20:04;;;;;;;28.77;24.37;;;8.90;99.90;;;;;;5068545;28;20488;-72
2021/10/09 07:22:31;;;;;;;28.57;25.57;;;9.00;99.90;;;;;;5068715;28;20623;-71
2021/10/09 07:24:57;;;;;;;30.10;24.67;;;9.00;99.90;;;;;;5069169;28;20908;-71
2021/10/09 07:27:23;;;;;;;28.90;24.87;;;9.00;99.90;;;;;;5068974;28;20433;-71
2021/10/09 07:29:49;;;;;;;31.53;25.20;;;9.10;99.90;;;;;;5067548;28;20449;-71
2021/10/09 07:32:15;;;;;;;28.83;25.83;;;9.20;99.90;;;;;;5058008;28;20188;-71
2021/10/09 07:34:40;;;;;;;30.03;24.43;;;9.20;99.90;;;;;;5048473;28;20206;-71
2021/10/09 07:37:06;;;;;;;26.50;23.53;;;9.30;99.90;;;;;;5048916;28;20832;-71
2021/10/09 07:39:32;;;;;;;30.50;25.80;;;9.30;99.90;;;;;;5048627;28;20163;-70
2021/10/09 07:41:58;;;;;;;29.90;25.40;;;9.30;99.90;;;;;;5048381;28;20495;-70
2021/10/09 07:44:24;;;;;;;33.97;25.30;;;9.40;99.90;;;;;;5048534;28;20157;-71
2021/10/09 07:46:50;;;;;;;27.17;24.37;;;9.40;99.90;;;;;;5053803;28;20913;-72
2021/10/09 07:49:16;;;;;;;26.40;23.60;;;9.50;99.90;;;;;;5068148;28;20609;-71
2021/10/09 07:51:42;;;;;;;29.30;25.77;;;9.60;99.90;;;;;;5067999;28;20992;-71
2021/10/09 07:54:08;;;;;;;32.60;25.23;;;9.60;99.90;;;;;;5068242;28;20406;-69
2021/10/09 07:56:36;;;;;;;28.20;24.30;;;9.70;99.90;;;;;;5068116;28;20148;-68
2021/10/09 07:59:02;;;;;;;29.80;25.87;;;9.80;99.90;;;;;;5067955;28;20160;-69
2021/10/09 08:01:28;;;;;;;25.80;23.13;;;9.80;99.90;;;;;;5060024;28;20518;-69
2021/10/09 08:03:54;;;;;;;27.43;23.70;;;9.90;99.90;;;;;;5034775;28;20491;-69
2021/10/09 08:06:19;;;;;;;27.57;23.53;;;10.00;99.90;;;;;;5034728;28;20177;-69
2021/10/09 08:08:45;;;;;;;27.17;24.20;;;10.00;99.90;;;;;;5034580;28;20165;-69
2021/10/09 08:11:10;;;;;;;26.73;23.87;;;10.10;99.90;;;;;;5034784;28;20186;-70
2021/10/09 08:13:36;;;;;;;27.33;24.43;;;10.20;99.90;;;;;;5034943;28;20192;-70
2021/10/09 08:16:03;;;;;;;32.23;25.20;;;10.20;99.90;;;;;;5034742;28;20184;-70
2021/10/09 08:18:29;;;;;;;26.10;22.80;;;10.30;99.90;;;;;;5034546;28;20384;-70
2021/10/09 08:21:02;;;;;;;26.83;22.67;;;10.40;99.90;;;;;;5050438;28;20464;-70
2021/10/09 08:23:31;;;;;;;27.33;23.43;;;10.40;99.90;;;;;;5054723;28;20399;-70
2021/10/09 08:36:54;;;;;;;23.20;20.90;;;10.80;99.90;;;;;;5068516;28;20481;-70
2021/10/09 08:39:20;;;;;;;24.77;21.10;;;10.90;99.90;;;;;;5069666;28;20493;-70
2021/10/09 08:41:46;;;;;;;23.37;20.50;;;11.00;99.90;;;;;;5069269;28;20965;-70
2021/10/09 08:44:12;;;;;;;28.77;23.33;;;11.10;99.90;;;;;;5068982;28;20386;-70
2021/10/09 08:46:37;;;;;;;26.60;21.13;;;11.10;99.90;;;;;;5069134;28;20444;-71
2021/10/09 08:49:04;;;;;;;29.50;21.70;;;11.20;99.90;;;;;;5069657;28;20156;-71
2021/10/09 08:51:30;;;;;;;23.10;20.70;;;11.30;99.90;;;;;;5068807;28;20148;-70
2021/10/09 08:54:04;;;;;;;25.67;21.90;;;11.40;99.90;;;;;;5068610;28;20387;-70
2021/10/09 08:59:20;;;;;;;22.93;20.47;;;11.50;99.90;;;;;;5069252;28;20508;-70
2021/10/09 09:02:02;;;;;;;22.70;20.30;;;11.60;99.90;;;;;;5061172;28;20489;-71
2021/10/09 09:27:13;;;;;;;21.10;18.90;;;12.30;99.90;;;;;;5068141;28;20410;-69
2021/10/09 09:40:41;;;;;;;19.87;17.43;;;12.70;99.90;;;;;;5068678;28;20811;-74
2021/10/09 09:43:08;;;;;;;20.50;18.23;;;12.80;99.90;;;;;;5069417;28;20390;-74
2021/10/09 09:45:36;;;;;;;19.33;16.70;;;12.80;99.90;;;;;;5065943;28;20415;-73
2021/10/09 09:48:02;;;;;;;21.30;16.43;;;12.80;99.90;;;;;;5049558;28;20971;-74
2021/10/09 09:50:28;;;;;;;18.50;15.27;;;12.90;99.90;;;;;;5049442;28;20478;-74
2021/10/09 09:52:55;;;;;;;21.43;17.37;;;12.90;99.90;;;;;;5049186;28;20226;-74
2021/10/09 09:55:21;;;;;;;19.57;17.47;;;12.90;99.90;;;;;;5049407;28;20402;-74
2021/10/09 09:57:48;;;;;;;19.97;16.20;;;12.90;99.90;;;;;;5049419;28;20516;-74
2021/10/09 10:00:15;;;;;;;20.00;15.93;;;13.00;99.90;;;;;;5049123;28;20391;-74
2021/10/09 10:02:54;;;;;;;20.20;15.37;;;13.00;99.90;;;;;;5049824;28;20415;-74
2021/10/09 10:05:24;;;;;;;15.97;14.27;;;13.00;99.90;;;;;;5049385;28;20774;-74
2021/10/09 10:07:51;;;;;;;17.23;14.70;;;13.10;99.90;;;;;;5049156;28;20464;-74
2021/10/09 10:10:17;;;;;;;15.03;13.43;;;13.20;99.90;;;;;;5058486;28;20403;-74
2021/10/09 10:12:46;;;;;;;14.17;12.67;;;13.20;99.90;;;;;;5069084;28;20398;-74
2021/10/09 10:15:12;;;;;;;17.63;13.70;;;13.30;99.90;;;;;;5068880;28;20615;-74
2021/10/09 10:17:47;;;;;;;15.47;12.20;;;13.30;99.90;;;;;;5068962;28;20422;-74
2021/10/09 10:20:14;;;;;;;15.93;12.27;;;13.30;99.90;;;;;;5058310;28;20436;-74
2021/10/09 10:25:29;;;;;;;14.43;12.30;;;13.30;99.90;;;;;;5069268;28;20660;-69
2021/10/09 10:35:48;;;;;;;15.73;11.70;;;13.60;99.90;;;;;;5089430;28;20882;-70
2021/10/09 10:40:59;;;;;;;19.13;10.80;;;13.70;99.90;;;;;;5069383;28;20509;-70
2021/10/09 10:55:02;;;;;;;10.90;9.67;;;14.20;99.90;;;;;;5056639;28;20524;-71
2021/10/09 10:57:28;;;;;;;13.03;10.40;;;14.30;99.90;;;;;;5049395;28;20394;-71
2021/10/09 10:59:55;;;;;;;10.53;8.83;;;14.30;99.90;;;;;;5049382;28;20469;-70
2021/10/09 11:05:02;;;;;;;10.30;9.20;;;14.30;99.90;;;;;;5109830;27;20564;-70
2021/10/09 11:07:29;;;;;;;9.80;8.67;;;14.40;99.90;;;;;;5109891;28;20874;-69
2021/10/09 11:10:08;;;;;;;13.23;8.97;;;14.40;99.90;;;;;;5109568;28;20490;-70
2021/10/09 11:12:36;;;;;;;13.13;8.87;;;14.50;99.90;;;;;;5109397;28;20817;-70
2021/10/09 11:17:45;;;;;;;18.30;8.60;;;14.60;99.90;;;;;;5110034;27;20549;-70
2021/10/09 11:20:20;;;;;;;11.73;8.87;;;14.70;99.90;;;;;;5109799;28;20470;-69
2021/10/09 11:22:48;;;;;;;13.93;8.40;;;14.70;99.90;;;;;;5110035;28;20501;-70
2021/10/09 11:28:16;;;;;;;10.40;8.87;;;14.70;99.90;;;;;;5061653;28;21060;-70
2021/10/09 11:30:42;;;;;;;13.00;9.47;;;14.70;99.90;;;;;;5048635;28;20405;-70
2021/10/09 11:33:07;;;;;;;17.30;8.57;;;14.70;99.90;;;;;;5049328;28;20402;-70
2021/10/09 11:35:36;;;;;;;9.77;8.33;;;14.80;99.90;;;;;;5049368;28;20531;-72
2021/10/09 11:38:04;;;;;;;12.93;8.70;;;14.80;99.90;;;;;;5049484;28;20256;-71
2021/10/09 11:40:34;;;;;;;9.77;7.97;;;14.80;99.90;;;;;;5049132;28;20398;-70
2021/10/09 11:43:12;;;;;;;13.63;8.30;;;14.80;99.90;;;;;;5030895;28;20423;-71
2021/10/09 11:45:44;;;;;;;9.17;8.17;;;14.80;99.90;;;;;;5028952;28;20469;-72
2021/10/09 11:56:43;;;;;;;14.90;8.00;;;14.70;99.90;;;;;;5069329;28;21112;-71
2021/10/09 11:59:10;;;;;;;11.50;7.67;;;14.70;99.90;;;;;;5069440;28;20472;-70
2021/10/09 12:01:42;;;;;;;9.37;7.93;;;14.70;99.90;;;;;;5058590;28;20414;-70
2021/10/09 12:04:23;;;;;;;10.23;7.47;;;14.70;99.90;;;;;;5049228;28;20383;-70
2021/10/09 12:06:54;;;;;;;14.00;8.10;;;14.70;99.90;;;;;;5048884;28;20442;-71
2021/10/09 12:09:44;;;;;;;9.27;7.93;;;14.60;99.90;;;;;;5049566;28;20885;-70
2021/10/09 12:12:20;;;;;;;7.50;6.30;;;14.60;99.90;;;;;;5048381;28;20485;-72
2021/10/09 12:14:47;;;;;;;7.77;6.97;;;14.60;99.90;;;;;;5051050;28;20860;-71
2021/10/09 12:17:14;;;;;;;11.17;8.00;;;14.60;99.90;;;;;;5068760;28;20863;-70
2021/10/09 12:19:39;;;;;;;11.30;6.40;;;14.70;99.90;;;;;;5056342;28;20480;-70
2021/10/09 12:22:08;;;;;;;10.27;6.87;;;14.80;99.90;;;;;;5049177;28;20399;-70
2021/10/09 12:24:45;;;;;;;7.73;6.40;;;14.90;99.90;;;;;;5048961;28;20605;-71
2021/10/09 12:27:16;;;;;;;9.00;6.70;;;14.90;99.90;;;;;;5048816;28;20433;-71
2021/10/09 12:32:41;;;;;;;9.93;6.50;;;14.90;99.90;;;;;;5049751;28;20599;-70
2021/10/09 12:35:25;;;;;;;10.17;6.53;;;14.90;99.90;;;;;;5049887;28;20386;-71
2021/10/09 12:40:41;;;;;;;10.63;7.20;;;14.90;99.90;;;;;;5069242;28;20541;-68
2021/10/09 12:43:10;;;;;;;8.27;6.33;;;15.00;99.90;;;;;;5069592;28;20471;-70
2021/10/09 12:45:36;;;;;;;9.43;7.63;;;15.00;99.90;;;;;;5069380;28;20380;-70
2021/10/09 12:48:03;;;;;;;9.83;6.90;;;14.90;99.90;;;;;;5069340;28;20401;-70
2021/10/09 12:50:31;;;;;;;8.87;6.70;;;14.90;99.90;;;;;;5069247;28;20388;-70
2021/10/09 12:52:57;;;;;;;8.40;7.60;;;14.80;99.90;;;;;;5062600;28;20463;-70
2021/10/09 12:55:26;;;;;;;7.83;6.77;;;14.80;99.90;;;;;;5049128;28;20858;-70
2021/10/09 12:57:54;;;;;;;10.17;7.37;;;14.80;99.90;;;;;;5049406;28;20406;-70
2021/10/09 13:00:22;;;;;;;10.73;7.20;;;14.80;99.90;;;;;;5050933;28;20817;-70
2021/10/09 13:02:47;;;;;;;8.27;7.40;;;15.00;99.90;;;;;;5068981;28;20444;-70
2021/10/09 13:05:13;;;;;;;9.70;7.20;;;15.00;99.90;;;;;;5068952;28;20436;-70
2021/10/09 13:07:39;;;;;;;10.47;6.57;;;15.10;99.90;;;;;;5068711;28;20250;-70
2021/10/09 13:10:06;;;;;;;8.07;7.27;;;15.20;99.90;;;;;;5060752;28;20417;-70
2021/10/09 13:12:31;;;;;;;9.83;7.47;;;15.30;99.90;;;;;;5048868;28;20160;-69
2021/10/09 13:14:58;;;;;;;10.20;6.00;;;15.40;99.90;;;;;;5048688;28;20429;-70
2021/10/09 13:17:23;;;;;;;7.50;6.60;;;15.40;99.90;;;;;;5050504;28;20910;-70
2021/10/09 13:19:49;;;;;;;15.00;8.30;;;15.40;99.90;;;;;;5068580;28;20507;-71
2021/10/09 13:22:15;;;;;;;8.03;7.17;;;15.40;99.90;;;;;;5068369;28;20398;-69
2021/10/09 13:24:40;;;;;;;7.63;6.77;;;15.40;99.90;;;;;;5068890;28;20608;-70
2021/10/09 13:27:06;;;;;;;12.93;7.43;;;15.40;99.90;;;;;;5067700;28;20176;-70
2021/10/09 13:29:31;;;;;;;10.97;8.80;;;15.30;99.90;;;;;;5068629;28;20164;-71
2021/10/09 13:31:57;;;;;;;10.20;8.40;;;15.20;99.90;;;;;;5052373;28;20215;-70
2021/10/09 13:34:24;;;;;;;8.87;7.53;;;15.20;99.90;;;;;;5048227;28;20168;-71
2021/10/09 13:36:50;;;;;;;10.23;8.00;;;15.10;99.90;;;;;;5048574;28;20156;-71
2021/10/09 13:39:15;;;;;;;9.03;7.43;;;15.00;99.90;;;;;;5048072;28;20512;-71
2021/10/09 13:41:41;;;;;;;9.50;8.20;;;14.90;99.90;;;;;;5048254;28;20277;-71
2021/10/09 13:44:07;;;;;;;10.47;8.10;;;14.90;99.90;;;;;;5048874;28;20180;-70
2021/10/09 13:46:32;;;;;;;8.00;7.20;;;14.80;99.90;;;;;;5047950;28;20206;-70
2021/10/09 13:48:59;;;;;;;7.23;6.40;;;14.70;99.90;;;;;;5048147;28;20160;-70
2021/10/09 13:51:25;;;;;;;15.03;11.67;;;14.70;99.90;;;;;;5037359;28;20164;-70
2021/10/09 13:53:51;;;;;;;23.50;15.57;;;14.70;99.90;;;;;;5035109;28;20512;-70
2021/10/09 13:56:17;;;;;;;22.40;14.23;;;14.70;99.90;;;;;;5034742;28;20404;-70
2021/10/09 13:58:42;;;;;;;13.87;12.47;;;14.90;99.90;;;;;;5034575;28;20196;-71
2021/10/09 14:01:08;;;;;;;14.80;12.80;;;15.00;99.90;;;;;;5036989;28;20182;-70
2021/10/09 14:03:35;;;;;;;16.13;12.10;;;15.10;99.90;;;;;;5034771;28;20207;-70
2021/10/09 14:06:02;;;;;;;12.67;11.37;;;15.20;99.90;;;;;;5034728;28;20175;-71
2021/10/09 14:08:28;;;;;;;15.47;11.30;;;15.20;99.90;;;;;;5034769;28;20967;-71
2021/10/09 14:10:55;;;;;;;15.53;12.10;;;15.20;99.90;;;;;;5034647;28;20396;-70
2021/10/09 14:13:23;;;;;;;16.70;13.70;;;15.20;99.90;;;;;;5034474;28;20453;-70
2021/10/09 14:15:49;;;;;;;16.33;13.63;;;15.30;99.90;;;;;;5034469;28;20826;-68
2021/10/09 14:18:16;;;;;;;15.37;13.37;;;15.30;99.90;;;;;;5034490;28;20412;-70
2021/10/09 14:20:46;;;;;;;24.20;17.23;;;15.30;99.90;;;;;;5034217;28;20399;-68
2021/10/09 14:23:12;;;;;;;19.30;15.80;;;15.30;99.90;;;;;;5034561;28;20491;-69
2021/10/09 14:25:37;;;;;;;21.13;15.80;;;15.30;99.90;;;;;;5034496;28;20392;-69
2021/10/09 14:28:03;;;;;;;23.90;14.40;;;15.30;99.90;;;;;;5034180;28;20234;-69
2021/10/09 14:30:29;;;;;;;15.57;13.50;;;15.30;99.90;;;;;;5039062;28;20579;-69
2021/10/09 14:32:55;;;;;;;17.33;11.93;;;15.30;99.90;;;;;;5053808;28;20250;-69
2021/10/09 14:35:21;;;;;;;14.93;12.63;;;15.30;99.90;;;;;;5043957;28;20429;-68
2021/10/09 14:37:47;;;;;;;15.03;13.10;;;15.30;99.90;;;;;;5034378;28;20540;-69
2021/10/09 14:40:13;;;;;;;12.73;11.07;;;15.40;99.90;;;;;;5033812;28;20903;-69
2021/10/09 14:42:38;;;;;;;19.53;13.23;;;15.40;99.90;;;;;;5034049;28;20758;-69
2021/10/09 14:45:05;;;;;;;19.37;12.97;;;15.40;99.90;;;;;;5033987;28;20152;-69
2021/10/09 14:47:39;;;;;;;14.10;12.47;;;15.40;99.90;;;;;;5033815;28;20167;-68
2021/10/09 14:50:16;;;;;;;15.87;13.90;;;15.40;99.90;;;;;;5034378;28;20387;-71
2021/10/09 14:53:21;;;;;;;17.43;13.73;;;15.40;99.90;;;;;;5034299;28;20482;-72
2021/10/09 14:55:45;;;;;;;19.57;14.23;;;15.40;99.90;;;;;;5032998;28;20415;-69
2021/10/09 15:20:07;;;;;;;20.03;17.07;;;15.50;99.90;;;;;;5090092;27;20587;-69
2021/10/09 15:22:33;;;;;;;23.63;16.50;;;15.50;99.90;;;;;;5089793;28;20424;-69
2021/10/09 15:24:59;;;;;;;21.17;17.67;;;15.40;99.90;;;;;;5089486;28;21012;-69
2021/10/09 15:27:27;;;;;;;20.83;18.63;;;15.40;99.90;;;;;;5069865;28;20179;-69
2021/10/09 15:29:53;;;;;;;19.83;15.60;;;15.40;99.90;;;;;;5068865;28;20462;-69
2021/10/09 15:32:18;;;;;;;18.50;14.80;;;15.40;99.90;;;;;;5069340;28;20752;-68
2021/10/09 15:34:44;;;;;;;19.60;16.73;;;15.40;99.90;;;;;;5069237;28;20393;-69
2021/10/09 15:37:10;;;;;;;21.80;15.27;;;15.40;99.90;;;;;;5069270;28;20178;-69
2021/10/09 15:39:36;;;;;;;17.33;14.67;;;15.40;99.90;;;;;;5068845;28;20289;-69
2021/10/09 15:42:04;;;;;;;22.70;18.23;;;15.40;99.90;;;;;;5068902;28;20195;-68
2021/10/09 15:44:30;;;;;;;22.50;18.30;;;15.40;99.90;;;;;;5029639;28;20452;-70